Friedrichshafen, Germany

7:18 AM CET on October 26, 2014 (GMT +0100)
Friedrichshafen | Change Station
CLOSE
Current Station
Airport
Location: Friedrichshafen,
Elevation: 1391 ft
Nearby Weather Stations

Elev 1391 ft 47.67 °N, 9.51 °E | Updated 28 minutes ago

Overcast
Overcast
48 °F
Feels Like 48 °F
N
2
Wind Variable Wind from Variable

Today
High -- | Low -- °F
--% Chance of Precip.
Yesterday
High -- | Low -- °F
Precip. -- in
6:56 AM 5:14 PM
Waxing Crescent, 6% visible
Pressure 30.27 in
Visibility 6.2 miles
Clouds Overcast 7300 ft
Dew Point 43 °F
Humidity 82%
Rainfall 0.00 in
Snow Depth Not available.
UV 0 out of 12
Pollen Not available.
Air Quality Not available.
Flu Activity Not available.
METAR EDNY 260550Z AUTO VRB02KT 9999 OVC073 09/06 Q1025

More Conditions Fewer Conditions

Pressure 30.27 in
Visibility 6.2 miles
Clouds Overcast 7300 ft
Dew Point 43 °F
Humidity 82%
Rainfall 0.00 in
Snow Depth Not available.
UV 0 out of 12
Pollen Not available.
Air Quality Not available.
Flu Activity Not available.
METAR EDNY 260550Z AUTO VRB02KT 9999 OVC073 09/06 Q1025

More Conditions Fewer Conditions

10-Day Weather Forecast

Almanac

Astronomy

Oct. 26, 2014 Rise Set
Actual Time 6:56 AM CET 5:14 PM CET
Civil Twilight 6:24 AM CET 5:46 PM CET
Nautical Twilight 5:48 AM CET 6:22 PM CET
Astronomical Twilight 5:13 AM CET 6:57 PM CET
Moon 9:25 AM CET 7:04 PM CET
Length of Visible Light 11h 21m
Length of Day
10h 17m
Tomorrow will be 3m 12s shorter.
Waxing Crescent, 6% of the Moon is Illuminated
Today
Waxing Crescent
Oct 30
First Quarter
Nov 6
Full
Nov 14
Last Quarter
Nov 22
New

Yesterday's Extremes

Country Highs Country Lows

Community

WunderPhotos

Upload Photos

1,765,113 photos uploaded!

Nearby

Snow Depth

Not available.

Earthquake Activity

City Distance Mag. Time & Date
No recent earthquake activity has been reported nearby.
Minimum magnitude displayed is 2.5.

Coastal Water Temperatures

Place Temperature
No Stations Reporting

Nearby Weather Stations